Joure, Netherlands
Current Conditions -  °F | °C
As of 7:16 PM on Friday 24 Oct 2014 (Local Time) from EHLW Reporting Station
Haze Haze  
Wind Chill: 52°   Ceiling: 300
Heat Index: 52°   Visibility: 2.1mi
Dew Point: 52°   Wind: 12mph
Humidity: 100%   Direction: 190°S
Pressure: 29.97"   Gusts: NA
Location:  52.97°N, 5.8°E
Report Text: EHLW 241716Z AUTO 19010KT 3400 R23/P3000 BR BKN003 OVC005 11/11 Q1015 YLO
Loading
Personal Weather Stations






























Interactive Weather Map
Tropical Storm Tracking
New forecast layout! Learn more

10-Day Weather Forecast

Advertisements
Track Severe Weather on mobile